Gold Country Challenge - Race 3 - 253 Miles NW Bakersfield

Station: Bakersfield NW Reina - A Race

Distance: 253.35 Miles    

Release: 22-Nov-2020 07:50

Weather Release: Hazy Sun/Cold    Arrival: Clear Early/Pt Cloudy Lat

Wind at Release: Light E     Wind at Arrival: Light NW

Temp at Release: 39°    Temp at Arrival: 62°

Lofts: 89

Birds: 243

Clocked: 229

Birds gone in 2-3 minutes left fast. Over 11k total prizes today
Drops Pos Breeder Pigeon Name Color Sex Ent Arrival Speed To Win Elg PdPointsChampAOC
1541 1 B S Lofts - CA 13322-AU20-JEDD 232 & 26-2 BC H 1 12:41:00.10 1532.280 00:00:00 Yes 385
1541 2 John & Omelio - NM 20757-AU20-NMRP BB H 1 12:41:01.80 1532.131 00:00:02 Yes 384
1541 3 Portland Loft - OR 2514-AU20-PNW Nebig Kittel BC H 1 12:41:02.30 1532.087 00:00:02 Yes 383
1541 4 Callahan Loft - MO 0957-AU20-AA DC H 1 12:41:16.40 1530.851 00:00:16 Yes 382
1541 5 E & K Loft - TX 0304-AU20-EK BB H 1 12:41:43.00 1528.524 00:00:43 Yes 381
- 1-DROP 12:41:42.00 1527.524
470 6 A P C Loft - TX 20082-AU20-APC BB H 1 12:44:20.90 1514.858 00:03:21 Yes 341
470 7 Omelio Perez - NM 20737-AU20-NMRP BB H 1 12:44:21.80 1514.781 00:03:22 Yes 340
- 2-DROP 12:44:20.00 1513.781
92.90 8 Bieche-Stevenson - CA 0242-AU20-BIE BC H 1 12:48:02.10 1496.120 00:07:02 Yes 310
92.90 9 Genesis Syndicate Loft - AZ 0579-AU20-GENS BC H 1 12:48:20.30 1494.598 00:07:20 Yes 309
92.90 10 Christopher Loft - UT 20099-AU20-GS BBWF H 1 12:48:25.20 1494.189 00:07:25 Yes 308
92.90 11 Osty Loft - CA 0228-AU20-OTC ESPERANZA BC H 1 12:48:25.80 1494.139 00:07:26 Yes 307
92.90 12 Denis Eastwood - CA 2101-AU20-HANG PIED H 1 12:48:29.00 1493.872 00:07:29 Yes 306
92.90 13 Big Game Loft - CA 2223-AU20-FVC BBWF H 1 12:48:29.80 1493.806 00:07:30 Yes 305
92.90 14 Bieche-Stevenson - CA 0181-AU20-BIE SLT H 2 12:48:33.10 1493.530 00:07:33 Yes 304
92.90 15 Sierra Ranch - CA 0254-AU20-SR Gold Nugget BBSP H 1 12:48:35.40 1493.339 00:07:35 Yes 303
92.90 16 Perfection Loft - KS 13038-AU20-AA 640-2804 PIED H 1 12:48:35.60 1493.322 00:07:36 Yes 302
92.90 17 Partridge Family Loft - CA 2236-AU20-PASO BC H 1 12:48:37.80 1493.139 00:07:38 Yes 301
92.90 18 Sierra Ranch - CA 2040-AU20-SR Gold finger BB H 2 12:48:38.10 1493.114 00:07:38 Yes 300
92.90 19 PNWC - ID 0032-AU20-PNWC Pair# 13 BC H 1 12:48:38.60 1493.072 00:07:39 Yes 299
92.90 20 Denis Eastwood - CA 2100-AU20-HANG BBWF H 2 12:48:39.30 1493.014 00:07:39 Yes 298
92.90 21 Dan & Greg Coury - AZ 20210-AU20-PEGA BC H 1 12:48:40.20 1492.939 00:07:40 Yes 297
92.90 22 Kereru Whare - CA 1183-AU20-FSC BB H 1 12:48:40.60 1492.905 00:07:41 Yes 296
92.90 23 Dads Loft - CA 20321-AU20-LAKE BC H 1 12:48:44.00 1492.622 00:07:44 Yes 295
92.90 24 Genesis Syndicate Loft - AZ 0560-AU20-GENS BCWF H 2 12:48:46.00 1492.456 00:07:46 Yes 294
92.90 25 House Of Paine - CA 0248-AU20-HOP 95872x59132 SLT H 1 12:48:47.00 1492.372 00:07:47 Yes 293
92.90 26 Stark Loft - CA 2008-AU20-HANG Blue Gold BB C 1 12:48:48.80 1492.223 00:07:49 Yes 292
92.90 27 A-Lo Loft/Nemelka - UT 0007-AU20-NRPL Debacker X Splendiferous BB C 1 12:48:49.20 1492.189 00:07:49 Yes 291
92.90 28 Do Drop In Loft - NC 0054-IF20-TRC Bad Mamma Jamma BC H 1 12:48:49.30 1492.181 00:07:49 Yes 290
92.90 29 Kereru Whare - CA 1121-AU20-FSC BB H 2 12:48:56.20 1491.607 00:07:56 Yes 289
92.90 30 Genesis Syndicate Loft - AZ 0154-AU20-GENP BC H 3 12:48:58.70 1491.399 00:07:59 Yes 288
92.90 31 Sparks Trio Syn - NV 0333-AU20-RENO BCWF H 1 12:49:00.50 1491.249 00:08:00 Yes 287
92.90 32 Double Diamond Tack & Feed - CA 2021-AU20-HANG Double D BB H 1 12:49:01.20 1491.191 00:08:01 Yes 286
92.90 33 E & K Loft - TX 0314-AU20-EK BB H 2 12:49:02.10 1491.116 00:08:02 Yes 285
92.90 34 Euro Dead - CA 29156-AU20-JEDD DV-849 J-30413 BB H 1 12:49:03.90 1490.967 00:08:04 Yes 284
92.90 35 John Gutierrez - NM 0241-AU20-GUTZ 979/910 BB H 1 12:49:05.10 1490.867 00:08:05 Yes 283
92.90 36 Genesis Syndicate Loft - AZ 0587-AU20-GENS BC H 4 12:49:07.20 1490.693 00:08:07 Yes 282
92.90 37 Perfection Loft - KS 13033-AU20-AA 640-2804 BBSP H 2 12:49:08.00 1490.626 00:08:08 Yes 281
92.90 38 Scm Lofts - CA 24651-AU20-JEDD BC H 1 12:49:20.10 1489.622 00:08:20 Yes 280
- 3-DROP 12:49:19.00 1488.622
39 Double J Loft Of Tx. - TX 0106-AU20-WACO Road Warrior BC H 1 12:50:43.20 1482.761 00:09:43 Yes 260
40 Marengo Creek Farms - GA 3538-AU20-MCF BB H 1 12:50:51.10 1482.112 00:09:51 Yes 259
- 4-DROP 12:50:50.00 1481.112
41 Kereru Whare - CA 1176-AU20-FSC BB H 3 12:54:44.40 1463.201 00:13:44 Yes 249
42 Bieu Tran - CA 0061-AU20-HJ BC H 1 12:54:47.30 1462.969 00:13:47 Yes 248
100 COL 43 White Arrow Loft - IL 0559-AU20-LCC MYPD H 1 12:54:50.20 1462.737 00:13:50 Yes 247
44 Dads Loft - CA 20306-AU20-LAKE SILV H 2 12:54:57.60 1462.146 00:13:57 Yes 246
45 Silicon Valley Syndicate - CA 20185-AU20-SVS DC H 1 12:55:49.50 1458.010 00:14:49 Yes 245
46 R & D Racing 2 - ON 4420-AU20-AA BCWF H 1 12:57:54.90 1448.114 00:16:55 Yes 244
47 F-R-E-L Syndicate - CA 7016-AU20-AA Francis 016 BB H 1 12:59:37.60 1440.109 00:18:37 Yes 243
48 Marengo Creek Farms - GA 3505-AU20-MCF SLWS H 2 12:59:38.90 1440.008 00:18:39 Yes 242
49 Wonderwings Lofts - CA 2046-AU20-MAN Hurricane BB H 1 12:59:41.10 1439.837 00:18:41 Yes 241
50 A P C Loft - TX 20119-AU20-APC BB H 2 12:59:59.20 1438.436 00:18:59 Yes 240
51 Emmalyn & Carelyn Loft - CA 0708-AU20-CEYX ~ CEYX 708 ~ BB H 1 13:00:05.70 1437.934 00:19:06 Yes 239
52 Just Lucky - CA 0314-AU20-HAY BB H 1 13:00:06.20 1437.895 00:19:06 Yes 238
53 Armando Lopez Loft - CA 3984-AU20-CHP BC H 1 13:00:11.00 1437.524 00:19:11 Yes 237
54 Sparks Trio Syn - NV 0314-AU20-RENO BC H 2 13:00:11.40 1437.493 00:19:11 Yes 236
55 Oddiebeng Loft - CA 9669-AU20-FOYS BC H 1 13:00:12.10 1437.439 00:19:12 Yes 235
56 Marengo Creek Farms - GA 3513-AU20-MCF BB H 3 13:00:15.40 1437.184 00:19:15 Yes 234
57 Hayloft - CA 0421-AU20-GSF BB H 1 13:00:16.10 1437.130 00:19:16 Yes 233
58 Bob Niemeyer - CA 1014-AU20-AUB BB H 1 13:00:18.40 1436.953 00:19:18 Yes 232
59 Al Shulman - CA 2149-AU20-WSJ BCWF H 1 13:00:19.10 1436.899 00:19:19 Yes 231
60 Watson & Williams - NV 2174-AU20-HANG BC H 1 13:00:20.50 1436.791 00:19:20 Yes 230
61 Kereru Whare - CA 1172-AU20-FSC BB H 4 13:00:22.30 1436.652 00:19:22 Yes 229
62 Stark Loft - CA 2016-AU20-HANG Claim Jumper RSMK C 2 13:00:23.20 1436.582 00:19:23 Yes 228
63 Dud/Tx Mx/Ramp - TX 9459-AU20-AA BB H 1 13:02:01.20 1429.062 00:21:01 Yes 227
64 Sierra Ranch - CA 0251-AU20-SR Golden Rain BC H 3 13:02:29.70 1426.890 00:21:30 Yes 226
65 John V. Partridge - CA 2006-AU20-PASO Mr. Stevie MLY H 1 13:02:30.70 1426.814 00:21:31 Yes 225
66 A P C Loft - TX 20132-AU20-APC GRIZ H 3 13:02:33.00 1426.639 00:21:33 Yes 224
67 Skylinerpl.Com - UT 35770-AU20-JEDD "Golden Kaasboer" BBWF H 1 13:02:33.60 1426.593 00:21:34 Yes 223
68 Denis Eastwood - CA 2113-AU20-HANG BLK H 3 13:02:35.10 1426.479 00:21:35 Yes 222
69 John & Omelio - NM 20064-AU20-NMRP BC H 2 13:02:36.60 1426.365 00:21:37 Yes 221
70 D J's Loft Of Ca - CA 1801-AU20-FSC BB H 1 13:02:37.60 1426.289 00:21:38 Yes 220
71 Dan & Greg Coury - AZ 0501-AU20-AONE BB H 2 13:02:39.60 1426.137 00:21:40 Yes 219
72 Crazy Al & Chris Melucci - CO 15707-AU20-AA GRIZ H 1 13:02:39.90 1426.114 00:21:40 Yes 218
73 House Of Paine - CA 0256-AU20-HOP 565x16 GRIZ H 2 13:02:40.30 1426.084 00:21:40 Yes 217
74 R & D Racing 2 - ON 4407-AU20-AA BC H 2 13:02:40.40 1426.076 00:21:40 Yes 216
75 Silicon Valley Syndicate - CA 20067-AU20-SVS BB H 2 13:02:41.20 1426.015 00:21:41 Yes 215
76 Prout's Loft - CA 0478-AU20-PROU Shortface BB H 1 13:02:41.70 1425.977 00:21:42 Yes 214
77 Genesis Syndicate Loft - AZ 0575-AU20-GENS BB H 5 13:02:42.30 1425.932 00:21:42 Yes 213
78 White Arrow Loft - IL 0575-AU20-LCC BB H 2 13:02:43.60 1425.833 00:21:44 Yes 212
79 Jamie Bertero - CA 0821-AU20-ML TRUMP BCPD H 1 13:02:45.60 1425.681 00:21:46 Yes 211
80 H & H Flying Circus - CA 0304-AU20-ML BC H 1 13:02:46.20 1425.635 00:21:46 Yes 210
81 Denis Eastwood - CA 2104-AU20-HANG DCWF H 4 13:02:47.50 1425.537 00:21:47 Yes 209
82 PNWC - ID 1201-AU20-IDA Pair# J15 BB H 2 13:02:48.00 1425.499 00:21:48 Yes 208
83 A P C Loft - TX 20128-AU20-APC BBWF H 4 13:02:52.40 1425.165 00:21:52 Yes 207
84 John & Omelio - NM 20063-AU20-NMRP BC H 3 13:02:54.00 1425.043 00:21:54 Yes 206
85 F-R-E-L Syndicate - CA 16905-AU20-JEDD Reb 905 BB H 2 13:02:56.40 1424.861 00:21:56 Yes 205
86 Salsloft.Com & Sons - UT 2097-AU20-SALS BB H 1 13:02:57.80 1424.755 00:21:58 Yes 204
87 Cloux Loft - CO 20716-AU20-FH BB H 1 13:03:00.80 1424.527 00:22:01 Yes 203
88 PNWC - ID 0034-AU20-PNWC Pair# 7 BBWS H 3 13:03:07.40 1424.027 00:22:07 Yes 202
89 Crazy Al & Chris Melucci - CO 5718-AU20-CRAZ BBSP H 2 13:03:28.80 1422.407 00:22:29 Yes 201
90 Kereru Whare - CA 1125-AU20-FSC BB H 5 13:03:35.40 1421.908 00:22:35 Yes 200
91 --- C H O U --- H A N G --- - CA 2001-IF20-HANG Ia's Pick BB H 1 13:04:04.00 1419.750 00:23:04 Yes 199
92 Perfection Loft - KS 13047-AU20-AA 327-104 BB H 3 13:04:08.20 1419.433 00:23:08 Yes 198
93 Bieche-Stevenson - CA 0297-AU20-BIE BB H 3 13:05:02.20 1415.378 00:24:02 Yes 197
94 Bob Niemeyer - CA 1031-AU20-AUB BB H 2 13:05:04.10 1415.236 00:24:04 Yes 196
95 Perfection Loft - KS 13049-AU20-AA 371-48196 BBWF H 4 13:05:06.60 1415.049 00:24:06 Yes 195
95 Dud/Tx Mx/Ramp - TX 9457-AU20-AA BB H 2 13:05:06.60 1415.049 00:24:06 Yes 195

There are 247 bird records

Note: These Race Results are unofficial and subject to change until verified by the Race Committee and declared final.